Time;durP1;ratioP1;P1;durP2;ratioP2;P2;SDS_P1;SDS_P2;PMS_P1;PMS_P2;Temp;Humidity;BMP_temperature;BMP_pressure;BME280_temperature;BME280_humidity;BME280_pressure;Samples;Min_cycle;Max_cycle;Signal;HPM_P1;HPM_P2
2021/08/25 00:01:32;;;;;;;5.13;3.20;;;12.20;99.90;;;13.28;100.00;98901.25;5047136;28;20798;-79
2021/08/25 00:04:01;;;;;;;4.30;2.80;;;12.20;99.90;;;13.21;100.00;98903.78;5051223;28;20466;-79
2021/08/25 00:06:29;;;;;;;4.10;2.80;;;12.10;99.90;;;13.19;100.00;98903.13;5045961;28;20519;-79
2021/08/25 00:08:58;;;;;;;6.67;3.30;;;12.00;99.90;;;13.20;100.00;98896.91;5051326;28;20523;-79
2021/08/25 00:11:26;;;;;;;6.03;3.50;;;12.00;99.90;;;13.20;100.00;98896.91;5050407;28;20678;-79
2021/08/25 00:13:55;;;;;;;5.60;3.67;;;12.10;99.90;;;13.14;100.00;98895.00;5053916;28;20496;-79
2021/08/25 00:16:23;;;;;;;5.70;3.20;;;12.00;99.90;;;13.16;100.00;98892.19;5044838;28;20825;-79
2021/08/25 00:18:53;;;;;;;6.50;2.90;;;12.00;99.90;;;13.04;100.00;98889.19;5044734;28;20499;-79
2021/08/25 00:21:22;;;;;;;7.33;2.83;;;11.90;99.90;;;13.10;100.00;98899.00;5043319;28;20942;-79
2021/08/25 00:23:50;;;;;;;8.63;3.23;;;12.00;99.90;;;13.15;100.00;98888.75;5049766;28;20504;-79
2021/08/25 00:26:18;;;;;;;4.97;4.00;;;12.10;99.90;;;13.10;100.00;98885.84;5050715;28;20857;-79
2021/08/25 00:28:47;;;;;;;8.30;3.70;;;12.00;99.90;;;12.95;100.00;98890.25;5048909;28;20460;-79
2021/08/25 00:31:15;;;;;;;4.60;2.87;;;11.70;99.90;;;12.96;100.00;98881.38;5046117;28;23067;-79
2021/08/25 00:33:44;;;;;;;5.23;3.57;;;11.80;99.90;;;13.00;100.00;98880.03;5049983;28;20547;-79
2021/08/25 00:36:14;;;;;;;5.30;3.10;;;11.80;99.90;;;12.97;100.00;98881.22;5048918;28;20574;-79
2021/08/25 00:38:42;;;;;;;4.60;2.90;;;11.90;99.90;;;12.91;100.00;98879.31;5047554;28;20524;-79
2021/08/25 00:41:11;;;;;;;4.73;3.10;;;11.70;99.90;;;12.93;100.00;98871.25;5054902;28;20461;-79
2021/08/25 00:43:39;;;;;;;6.90;3.13;;;11.80;99.90;;;12.87;100.00;98874.63;5048546;28;20488;-79
2021/08/25 00:46:08;;;;;;;5.20;3.20;;;11.70;99.90;;;12.88;100.00;98878.84;5040051;28;20866;-79
2021/08/25 00:48:36;;;;;;;7.20;3.67;;;11.70;99.90;;;12.86;100.00;98875.59;5054185;28;20469;-79
2021/08/25 00:51:05;;;;;;;4.40;3.40;;;11.80;99.90;;;12.76;100.00;98872.44;5050489;28;20928;-79
2021/08/25 00:53:35;;;;;;;6.13;3.03;;;11.60;99.90;;;12.65;100.00;98878.13;5049294;28;20504;-79
2021/08/25 00:56:07;;;;;;;4.37;3.00;;;11.40;99.90;;;12.63;100.00;98879.09;5043963;28;20479;-79
2021/08/25 00:58:38;;;;;;;4.20;2.87;;;11.40;99.90;;;12.70;100.00;98873.16;5047299;28;21023;-79
2021/08/25 01:01:14;;;;;;;7.93;3.30;;;11.50;99.90;;;12.68;100.00;98873.31;5046922;28;20493;-79
2021/08/25 01:03:51;;;;;;;5.27;3.40;;;11.50;99.90;;;12.59;100.00;98870.00;5043395;28;20487;-79
2021/08/25 01:06:24;;;;;;;4.90;3.40;;;11.30;99.90;;;12.64;100.00;98866.81;5043423;28;20534;-79
2021/08/25 01:08:55;;;;;;;7.03;2.97;;;11.40;99.90;;;12.59;100.00;98858.66;5044545;28;20497;-79
2021/08/25 01:11:24;;;;;;;8.10;3.50;;;11.30;99.90;;;12.55;100.00;98860.84;5044217;28;20477;-79
2021/08/25 01:13:52;;;;;;;5.50;3.13;;;11.30;99.90;;;12.56;100.00;98857.19;5034185;28;20450;-79
2021/08/25 01:16:22;;;;;;;7.33;3.47;;;11.30;99.90;;;12.49;100.00;98860.75;5045052;28;20911;-79
2021/08/25 01:18:51;;;;;;;9.43;3.10;;;11.30;99.90;;;12.38;100.00;98855.94;5046874;28;20469;-79
2021/08/25 01:21:21;;;;;;;5.83;3.17;;;11.20;99.90;;;12.50;100.00;98857.09;5045996;28;20462;-79
2021/08/25 01:23:49;;;;;;;7.83;2.97;;;11.30;99.90;;;12.55;100.00;98860.84;5048610;28;20978;-79
2021/08/25 01:26:20;;;;;;;4.40;2.83;;;11.50;99.90;;;12.58;100.00;98860.47;5049552;28;20523;-79
2021/08/25 01:28:52;;;;;;;5.70;3.07;;;11.50;99.90;;;12.54;100.00;98855.75;5048473;28;20489;-80
2021/08/25 01:31:27;;;;;;;6.63;3.00;;;11.50;99.90;;;12.46;100.00;98853.22;5048105;28;21003;-79
2021/08/25 01:34:05;;;;;;;10.60;2.80;;;11.30;99.90;;;12.44;100.00;98848.16;5045005;28;20460;-79
2021/08/25 01:36:34;;;;;;;3.70;2.70;;;11.30;99.90;;;12.43;100.00;98838.66;5049123;28;21014;-79
2021/08/25 01:39:03;;;;;;;7.37;3.60;;;11.30;99.90;;;12.33;100.00;98838.09;5041259;28;20953;-79
2021/08/25 01:41:32;;;;;;;4.10;3.00;;;11.10;99.90;;;12.32;100.00;98851.41;5048932;28;20495;-79
2021/08/25 01:44:03;;;;;;;6.63;3.57;;;11.10;99.90;;;12.32;100.00;98848.78;5046022;28;20496;-79
2021/08/25 01:46:34;;;;;;;4.17;3.00;;;11.10;99.90;;;12.31;100.00;98850.56;5038194;28;20458;-79
2021/08/25 01:49:05;;;;;;;4.63;3.20;;;11.10;99.90;;;12.28;100.00;98844.88;5047045;28;20457;-79
2021/08/25 01:51:35;;;;;;;6.00;3.30;;;11.10;99.90;;;12.22;100.00;98843.75;5045228;28;20505;-79
2021/08/25 01:54:05;;;;;;;5.10;3.27;;;11.00;99.90;;;12.28;100.00;98845.69;5048430;28;20522;-79
2021/08/25 01:56:36;;;;;;;4.90;3.20;;;11.10;99.90;;;12.30;100.00;98838.44;5047110;28;20449;-79
2021/08/25 01:59:05;;;;;;;4.37;3.03;;;11.20;99.90;;;12.26;100.00;98845.03;5049349;28;20487;-79
2021/08/25 02:01:35;;;;;;;10.13;3.33;;;11.10;99.90;;;12.26;100.00;98842.41;5049722;28;20543;-79
2021/08/25 02:04:04;;;;;;;5.77;3.27;;;11.10;99.90;;;12.16;100.00;98835.78;5042990;28;20453;-79
2021/08/25 02:06:33;;;;;;;6.10;3.63;;;10.90;99.90;;;12.20;100.00;98837.06;5039457;28;20468;-79
2021/08/25 02:09:02;;;;;;;8.07;3.43;;;11.00;99.90;;;12.18;100.00;98839.88;5044997;28;20968;-79
2021/08/25 02:11:30;;;;;;;4.40;3.07;;;11.00;99.90;;;12.15;100.00;98831.56;5047050;28;20484;-79
2021/08/25 02:13:59;;;;;;;4.47;3.50;;;11.00;99.90;;;12.10;100.00;98821.59;5044309;28;20465;-79
2021/08/25 02:16:27;;;;;;;8.83;3.17;;;10.90;99.90;;;12.05;100.00;98824.75;5043150;28;20502;-79
2021/08/25 02:18:57;;;;;;;5.60;3.47;;;10.90;99.90;;;12.13;100.00;98831.72;5040058;28;20553;-79
2021/08/25 02:21:26;;;;;;;5.97;3.60;;;11.00;99.90;;;12.09;100.00;98825.19;5047776;28;21036;-79
2021/08/25 02:23:54;;;;;;;6.00;3.23;;;10.90;99.90;;;12.09;100.00;98830.44;5046771;28;20469;-79
2021/08/25 02:26:23;;;;;;;4.83;3.23;;;10.90;99.90;;;12.07;100.00;98825.41;5047566;28;21009;-79
2021/08/25 02:28:53;;;;;;;7.03;3.60;;;10.90;99.90;;;12.07;100.00;98828.00;5044392;28;20988;-79
2021/08/25 02:31:22;;;;;;;5.43;3.00;;;10.90;99.90;;;12.09;100.00;98840.94;5047729;28;20519;-79
2021/08/25 02:33:51;;;;;;;4.47;3.10;;;10.90;99.90;;;11.92;100.00;98831.56;5048244;28;20465;-80
2021/08/25 02:36:22;;;;;;;6.33;3.73;;;10.70;99.90;;;11.92;100.00;98835.00;5052665;28;20488;-79
2021/08/25 02:38:51;;;;;;;7.47;3.37;;;10.70;99.90;;;11.95;100.00;98833.84;5043730;28;20961;-79
2021/08/25 02:41:21;;;;;;;7.90;3.50;;;10.70;99.90;;;11.96;100.00;98830.22;5046461;28;20527;-79
2021/08/25 02:43:49;;;;;;;5.47;3.07;;;10.70;99.90;;;11.99;100.00;98827.25;5045408;28;20485;-79
2021/08/25 02:46:19;;;;;;;5.63;3.40;;;10.80;99.90;;;12.03;100.00;98823.28;5044397;28;20562;-78
2021/08/25 02:48:48;;;;;;;5.40;3.43;;;10.90;99.90;;;12.07;100.00;98821.94;5048368;28;20452;-79
2021/08/25 02:51:17;;;;;;;7.70;2.83;;;11.00;99.90;;;12.03;100.00;98815.44;5046863;28;20460;-79
2021/08/25 02:53:47;;;;;;;5.63;3.30;;;10.90;99.90;;;12.07;100.00;98809.66;5045685;28;20466;-79
2021/08/25 02:56:15;;;;;;;9.23;3.53;;;11.00;99.90;;;12.07;100.00;98816.72;5060456;28;20472;-79
2021/08/25 02:58:45;;;;;;;6.50;3.90;;;11.00;99.90;;;12.01;100.00;98807.72;5047316;28;20946;-78
2021/08/25 03:01:13;;;;;;;6.07;3.20;;;10.80;99.90;;;11.97;100.00;98806.47;5041096;28;20531;-78
2021/08/25 03:03:42;;;;;;;9.10;3.20;;;10.80;99.90;;;12.00;100.00;98810.53;5055328;28;20452;-79
2021/08/25 03:06:10;;;;;;;6.93;3.20;;;10.90;99.90;;;12.01;100.00;98809.53;5050459;28;20964;-79
2021/08/25 03:08:39;;;;;;;5.97;2.73;;;10.90;99.90;;;12.03;100.00;98804.94;5041758;28;20516;-78
2021/08/25 03:11:11;;;;;;;6.10;3.47;;;10.90;99.90;;;12.01;100.00;98801.66;5047391;28;21085;-79
2021/08/25 03:13:40;;;;;;;3.57;2.80;;;10.90;99.90;;;12.06;100.00;98801.97;5045780;28;21056;-79
2021/08/25 03:16:09;;;;;;;5.50;3.00;;;10.90;99.90;;;11.95;100.00;98803.19;5049993;28;21030;-79
2021/08/25 03:18:38;;;;;;;4.57;3.27;;;10.70;99.90;;;11.93;100.00;98796.53;5049818;28;20470;-79
2021/08/25 03:21:06;;;;;;;2.83;2.40;;;10.70;99.90;;;11.87;100.00;98810.34;5047228;28;20566;-79
2021/08/25 03:23:35;;;;;;;5.63;2.67;;;10.60;99.90;;;11.90;100.00;98809.97;5047361;28;20497;-79
2021/08/25 03:26:03;;;;;;;7.60;2.80;;;10.70;99.90;;;11.95;100.00;98805.81;5045383;28;20472;-78
2021/08/25 03:28:33;;;;;;;8.60;3.67;;;10.80;99.90;;;11.92;100.00;98797.50;5041637;28;20504;-78
2021/08/25 03:31:02;;;;;;;4.40;3.30;;;10.70;99.90;;;11.91;100.00;98796.69;5050616;28;20515;-78
2021/08/25 03:33:30;;;;;;;5.27;3.03;;;10.70;99.90;;;11.92;100.00;98789.63;5043871;28;20501;-78
2021/08/25 03:35:59;;;;;;;5.70;3.30;;;10.70;99.90;;;11.91;100.00;98790.63;5045874;28;20473;-79
2021/08/25 03:38:27;;;;;;;6.10;3.40;;;10.70;99.90;;;11.89;100.00;98792.63;5047155;28;20516;-79
2021/08/25 03:40:56;;;;;;;5.80;3.57;;;10.70;99.90;;;11.90;100.00;98789.00;5049116;28;20980;-79
2021/08/25 03:43:24;;;;;;;9.80;3.40;;;10.80;99.90;;;11.86;100.00;98782.50;5050354;28;20508;-78
2021/08/25 03:45:54;;;;;;;4.37;2.63;;;10.70;99.90;;;11.80;100.00;98785.81;5052169;28;20528;-78
2021/08/25 03:48:22;;;;;;;4.50;3.00;;;10.60;99.90;;;11.84;100.00;98782.66;5051705;28;20476;-79
2021/08/25 03:50:51;;;;;;;6.33;3.10;;;10.70;99.90;;;11.84;100.00;98782.66;5049440;28;20519;-78
2021/08/25 03:53:20;;;;;;;9.30;3.70;;;10.70;99.90;;;11.84;100.00;98773.97;5047152;28;20461;-78
2021/08/25 03:55:48;;;;;;;4.77;3.33;;;10.70;99.90;;;11.81;100.00;98779.56;5048050;28;20456;-78
2021/08/25 03:58:17;;;;;;;7.33;3.83;;;10.70;99.90;;;11.81;100.00;98779.56;5048829;28;20519;-78
2021/08/25 04:00:45;;;;;;;7.70;3.40;;;10.60;99.90;;;11.80;100.00;98777.97;5042955;28;20524;-78
2021/08/25 04:03:15;;;;;;;4.27;2.83;;;10.60;99.90;;;11.78;100.00;98780.75;5043694;28;20458;-79
2021/08/25 04:05:44;;;;;;;8.17;3.50;;;10.60;99.90;;;11.80;100.00;98781.38;5060382;28;20909;-79
2021/08/25 04:08:12;;;;;;;4.53;3.20;;;10.60;99.90;;;11.74;100.00;98779.47;5048338;28;20977;-78
2021/08/25 04:10:41;;;;;;;4.97;3.40;;;10.60;99.90;;;11.70;100.00;98780.75;5048479;28;20481;-78
2021/08/25 04:13:10;;;;;;;4.83;3.23;;;10.60;99.90;;;11.69;100.00;98778.34;5049325;28;20465;-78
2021/08/25 04:15:40;;;;;;;6.13;3.97;;;10.50;99.90;;;11.71;100.00;98776.38;5050576;28;20889;-78
2021/08/25 04:18:09;;;;;;;5.50;3.00;;;10.50;99.90;;;11.70;100.00;98772.91;5039519;28;21020;-79
2021/08/25 04:20:39;;;;;;;5.63;3.30;;;10.50;99.90;;;11.66;100.00;98770.84;5044123;28;20508;-78
2021/08/25 04:23:08;;;;;;;5.53;3.23;;;10.50;99.90;;;11.61;100.00;98780.03;5043855;28;20502;-79
2021/08/25 04:25:36;;;;;;;4.37;2.90;;;10.50;99.90;;;11.63;100.00;98779.06;5048830;28;20910;-79
2021/08/25 04:28:05;;;;;;;4.13;3.10;;;10.50;99.90;;;11.65;100.00;98774.44;5046278;28;20829;-78
2021/08/25 04:30:33;;;;;;;7.93;3.90;;;10.60;99.90;;;11.63;100.00;98773.81;5046563;28;20507;-78
2021/08/25 04:33:03;;;;;;;7.53;3.17;;;10.50;99.90;;;11.58;100.00;98780.38;5045088;28;20845;-78
2021/08/25 04:35:31;;;;;;;5.93;3.63;;;10.40;99.90;;;11.53;100.00;98776.66;5050666;28;20832;-78
2021/08/25 04:38:01;;;;;;;6.40;3.03;;;10.40;99.90;;;11.51;100.00;98774.22;5049003;28;20464;-78
2021/08/25 04:40:30;;;;;;;4.23;3.30;;;10.40;99.90;;;11.51;100.00;98774.22;5044180;28;20503;-78
2021/08/25 04:43:00;;;;;;;4.97;3.50;;;10.40;99.90;;;11.56;100.00;98774.50;5050091;28;20563;-79
2021/08/25 04:45:29;;;;;;;5.47;3.27;;;10.40;99.90;;;11.53;100.00;98774.84;5048934;28;20504;-78
2021/08/25 04:48:00;;;;;;;11.30;4.00;;;10.40;99.90;;;11.44;100.00;98772.47;5048103;28;20456;-78
2021/08/25 04:50:28;;;;;;;8.03;3.80;;;10.20;99.90;;;11.49;100.00;98773.56;5040555;28;20493;-78
2021/08/25 04:52:57;;;;;;;5.33;3.50;;;10.40;99.90;;;11.53;100.00;98772.22;5046329;28;20963;-78
2021/08/25 04:55:28;;;;;;;7.07;3.90;;;10.40;99.90;;;11.49;100.00;98778.78;5044776;28;20519;-77
2021/08/25 04:57:56;;;;;;;6.50;3.10;;;10.40;99.90;;;11.52;100.00;98777.66;5039302;28;21000;-78
2021/08/25 05:00:25;;;;;;;10.03;3.67;;;10.40;99.90;;;11.54;100.00;98773.03;5051144;28;20437;-78
2021/08/25 05:02:53;;;;;;;4.97;3.67;;;10.40;99.90;;;11.47;100.00;98778.16;5046775;28;20911;-78
2021/08/25 05:05:23;;;;;;;3.87;3.00;;;10.30;99.90;;;11.50;100.00;98788.28;5048909;28;20495;-78
2021/08/25 05:07:52;;;;;;;7.33;3.13;;;10.40;99.90;;;11.51;100.00;98779.47;5034501;28;20446;-78
2021/08/25 05:10:20;;;;;;;4.90;3.47;;;10.50;99.90;;;11.53;100.00;98776.66;5049091;28;20853;-79
2021/08/25 05:12:50;;;;;;;5.90;3.20;;;10.40;99.90;;;11.51;100.00;98773.41;5031445;28;20446;-79
2021/08/25 05:15:19;;;;;;;6.47;3.33;;;10.40;99.90;;;11.51;100.00;98779.47;5033730;28;20500;-78
2021/08/25 05:17:48;;;;;;;9.53;3.60;;;10.30;99.90;;;11.50;100.00;98780.44;5050840;28;20879;-78
2021/08/25 05:20:16;;;;;;;5.87;3.53;;;10.40;99.90;;;11.48;100.00;98779.81;5047498;28;20519;-78
2021/08/25 05:22:45;;;;;;;5.70;3.50;;;10.40;99.90;;;11.43;100.00;98784.75;5046969;28;20502;-78
2021/08/25 05:25:13;;;;;;;13.53;3.63;;;10.30;99.90;;;11.40;100.00;98782.47;5049827;28;20473;-78
2021/08/25 05:27:42;;;;;;;6.77;3.83;;;10.30;99.90;;;11.40;100.00;98784.28;5050650;28;20942;-79
2021/08/25 05:30:13;;;;;;;5.50;3.80;;;10.20;99.90;;;11.41;100.00;98786.72;5050206;28;20457;-78
2021/08/25 05:32:41;;;;;;;6.93;3.97;;;10.30;99.90;;;11.45;100.00;98792.44;5050886;28;20453;-78
2021/08/25 05:35:11;;;;;;;6.23;2.97;;;10.40;99.90;;;11.50;100.00;98793.53;5045132;28;20465;-79
2021/08/25 05:37:40;;;;;;;7.10;5.00;;;10.50;99.90;;;11.50;100.00;98793.53;5044019;28;20465;-78
2021/08/25 05:40:09;;;;;;;8.90;3.60;;;10.40;99.90;;;11.55;100.00;98796.47;5049515;28;20942;-79
2021/08/25 05:42:37;;;;;;;4.60;3.43;;;10.40;99.90;;;11.56;100.00;98798.06;5049704;28;21080;-78
2021/08/25 05:45:08;;;;;;;5.03;3.53;;;10.40;99.90;;;11.60;100.00;98794.13;5050258;28;20499;-79
2021/08/25 05:47:39;;;;;;;4.93;3.33;;;10.50;99.90;;;11.66;100.00;98792.63;5053433;28;20441;-78
2021/08/25 05:50:10;;;;;;;5.43;3.43;;;10.60;99.90;;;11.69;100.00;98792.25;5049426;28;20462;-78
2021/08/25 05:52:38;;;;;;;4.27;3.10;;;10.60;99.90;;;11.76;100.00;98789.78;5048146;28;20534;-78
2021/08/25 05:55:08;;;;;;;7.20;4.37;;;10.70;99.90;;;11.81;100.00;98795.28;5054947;28;20879;-78
2021/08/25 05:57:41;;;;;;;7.33;3.97;;;10.80;99.90;;;11.85;100.00;98786.91;5044152;28;20819;-78
2021/08/25 06:00:11;;;;;;;12.47;3.77;;;10.80;99.90;;;11.92;100.00;98787.00;5046926;28;20522;-79
2021/08/25 06:02:41;;;;;;;9.30;3.43;;;10.90;99.90;;;11.96;100.00;98785.66;5051775;28;20856;-78
2021/08/25 06:05:12;;;;;;;10.17;3.90;;;10.90;99.90;;;12.01;100.00;98783.31;5051761;28;20524;-79
2021/08/25 06:07:41;;;;;;;8.10;3.93;;;11.00;99.90;;;12.04;100.00;98783.78;5043330;28;20520;-79
2021/08/25 06:10:11;;;;;;;6.00;3.60;;;11.00;99.90;;;12.09;100.00;98789.31;5050998;28;20488;-79
2021/08/25 06:12:40;;;;;;;11.70;3.13;;;11.10;99.90;;;12.10;100.00;98790.97;5045807;28;20873;-79
2021/08/25 06:15:09;;;;;;;6.27;3.60;;;11.10;99.90;;;12.15;100.00;98779.91;5050161;28;20797;-79
2021/08/25 06:17:38;;;;;;;9.43;3.50;;;11.10;99.90;;;12.20;100.00;98782.81;5049187;28;20505;-79
2021/08/25 06:20:10;;;;;;;5.60;3.57;;;11.20;99.90;;;12.25;100.00;98777.84;5046728;28;20460;-79
2021/08/25 06:22:39;;;;;;;14.10;4.10;;;11.30;99.90;;;12.31;100.00;98782.38;5045389;28;20501;-80
2021/08/25 06:25:10;;;;;;;9.50;6.00;;;11.30;99.90;;;12.35;100.00;98782.84;5049107;28;21014;-79
2021/08/25 06:27:39;;;;;;;8.63;4.43;;;11.40;99.90;;;12.39;100.00;98779.66;5045467;28;21505;-79
2021/08/25 06:30:09;;;;;;;5.07;3.50;;;11.50;99.90;;;12.44;100.00;98777.31;5045504;28;20857;-79
2021/08/25 06:32:38;;;;;;;11.07;3.70;;;11.50;99.90;;;12.48;100.00;98778.59;5046685;28;20495;-79
2021/08/25 06:35:09;;;;;;;21.07;5.00;;;11.50;99.90;;;12.51;100.00;98777.41;5046092;28;20448;-80
2021/08/25 06:37:38;;;;;;;6.80;4.30;;;11.50;99.90;;;12.52;100.00;98773.81;5050248;28;20941;-80
2021/08/25 06:40:08;;;;;;;5.87;3.80;;;11.50;99.90;;;12.55;100.00;98774.25;5049949;28;20449;-80
2021/08/25 06:42:37;;;;;;;11.20;3.73;;;11.60;99.90;;;12.61;100.00;98778.78;5051290;28;20554;-80
2021/08/25 06:45:07;;;;;;;10.67;7.50;;;11.70;99.90;;;12.68;100.00;98778.03;5059896;28;20475;-81
2021/08/25 06:47:36;;;;;;;8.60;5.90;;;11.80;99.90;;;12.72;100.00;98769.63;5056547;28;20453;-79
2021/08/25 06:50:08;;;;;;;5.77;4.27;;;11.80;99.90;;;12.79;100.00;98769.72;5048856;28;20452;-79
2021/08/25 06:52:36;;;;;;;17.23;3.70;;;11.80;99.90;;;12.84;100.00;98768.16;5043879;28;20475;-79
2021/08/25 06:55:06;;;;;;;5.37;3.40;;;11.90;99.90;;;12.89;100.00;98764.97;5051035;28;20539;-80
2021/08/25 06:57:37;;;;;;;12.40;4.20;;;12.00;99.90;;;12.95;100.00;98766.88;5049034;28;20522;-79
2021/08/25 07:00:07;;;;;;;6.53;3.97;;;12.00;99.90;;;12.98;100.00;98766.53;5053517;28;20881;-79
2021/08/25 07:02:35;;;;;;;7.63;3.60;;;12.10;99.90;;;13.02;100.00;98765.13;5053793;28;20510;-79
2021/08/25 07:05:07;;;;;;;17.97;4.13;;;12.10;99.90;;;13.07;100.00;98752.28;5050020;28;20509;-79
2021/08/25 07:07:36;;;;;;;5.50;3.90;;;12.10;99.90;;;13.11;100.00;98743.06;5045486;28;20469;-79
2021/08/25 07:10:06;;;;;;;5.80;3.83;;;12.20;99.90;;;13.17;100.00;98746.75;5053981;28;20911;-80
2021/08/25 07:12:35;;;;;;;4.40;3.77;;;12.30;99.90;;;13.23;100.00;98743.38;5053302;28;20457;-79
2021/08/25 07:15:04;;;;;;;4.70;3.47;;;12.40;99.90;;;13.29;100.00;98753.97;5050325;28;20547;-79
2021/08/25 07:17:32;;;;;;;5.23;3.90;;;12.40;99.90;;;13.35;100.00;98749.78;5051285;28;20457;-79
2021/08/25 07:20:01;;;;;;;7.70;4.60;;;12.50;99.90;;;13.42;100.00;98751.47;5052191;28;20457;-79
2021/08/25 07:22:32;;;;;;;8.20;4.13;;;12.60;99.90;;;13.49;100.00;98749.72;5052862;28;20912;-79
2021/08/25 07:25:00;;;;;;;7.13;4.50;;;12.70;99.90;;;13.56;100.00;98752.41;5049826;28;20714;-79
2021/08/25 07:27:29;;;;;;;6.83;3.97;;;12.70;99.90;;;13.63;100.00;98757.72;5050688;28;20468;-80
2021/08/25 07:29:57;;;;;;;9.97;4.20;;;12.80;99.90;;;13.70;100.00;98748.91;5052230;28;20457;-80
2021/08/25 07:32:26;;;;;;;87.80;42.77;;;12.90;99.90;;;13.77;100.00;98747.13;5050373;28;20464;-80
2021/08/25 07:34:54;;;;;;;14.70;7.57;;;13.00;99.90;;;13.85;100.00;98748.81;5044653;28;20469;-79
2021/08/25 07:37:23;;;;;;;9.03;4.07;;;13.10;99.90;;;13.92;100.00;98755.72;5052849;28;20468;-78
2021/08/25 07:39:53;;;;;;;5.90;4.83;;;13.20;99.90;;;13.99;100.00;98753.16;5057619;28;21019;-79
2021/08/25 07:42:21;;;;;;;5.60;3.80;;;13.30;99.90;;;14.06;100.00;98746.13;5053519;28;20468;-79
2021/08/25 07:44:50;;;;;;;5.33;3.77;;;13.30;99.90;;;14.15;100.00;98746.81;5055720;28;20506;-79
2021/08/25 07:47:18;;;;;;;12.47;3.73;;;13.40;99.90;;;14.21;100.00;98741.59;5053680;28;20961;-78
2021/08/25 07:49:47;;;;;;;5.27;3.87;;;13.50;99.90;;;14.27;100.00;98739.97;5053610;28;20465;-80
2021/08/25 07:52:16;;;;;;;8.70;3.93;;;13.60;99.90;;;14.33;100.00;98741.88;5054064;28;20501;-79
2021/08/25 07:54:45;;;;;;;6.37;3.97;;;13.60;99.90;;;14.38;100.00;98744.75;5049765;28;20469;-79
2021/08/25 07:57:14;;;;;;;5.10;3.87;;;13.70;99.90;;;14.45;100.00;98743.78;5050415;28;20461;-79
2021/08/25 07:59:43;;;;;;;8.80;4.10;;;13.70;99.90;;;14.52;100.00;98744.63;5053509;28;20465;-79
2021/08/25 08:02:12;;;;;;;10.20;4.20;;;13.80;99.90;;;14.58;100.00;98735.94;5050036;28;20465;-79
2021/08/25 08:04:40;;;;;;;9.90;4.23;;;13.90;99.90;;;14.67;100.00;98738.41;5055507;28;20529;-79
2021/08/25 08:07:09;;;;;;;9.80;3.57;;;14.00;99.90;;;14.78;100.00;98735.22;5054485;28;20480;-79
2021/08/25 08:09:39;;;;;;;4.87;3.50;;;14.20;99.90;;;14.83;100.00;98735.44;5051047;28;20512;-79
2021/08/25 08:12:08;;;;;;;5.60;3.80;;;14.20;99.90;;;14.89;100.00;98739.94;5049011;28;20945;-78
2021/08/25 08:14:38;;;;;;;5.57;4.20;;;14.30;99.90;;;14.94;100.00;98735.69;5052991;28;20452;-79
2021/08/25 08:17:06;;;;;;;6.70;3.93;;;14.40;99.90;;;15.01;100.00;98733.91;5052288;28;20441;-80
2021/08/25 08:19:35;;;;;;;109.13;62.10;;;14.40;99.90;;;15.08;100.00;98733.91;5054195;28;20452;-80
2021/08/25 08:22:04;;;;;;;18.00;10.17;;;14.40;99.90;;;15.13;100.00;98733.31;5052426;28;20528;-79
2021/08/25 08:24:33;;;;;;;9.87;5.00;;;14.50;99.90;;;15.19;100.00;98728.06;5049742;28;20529;-79
2021/08/25 08:27:02;;;;;;;9.10;4.17;;;14.50;99.90;;;15.24;100.00;98716.94;5048653;28;20477;-79
2021/08/25 08:29:30;;;;;;;5.70;4.10;;;14.60;99.90;;;15.29;100.00;98720.59;5053473;28;20464;-79
2021/08/25 08:32:00;;;;;;;5.73;3.80;;;14.70;99.90;;;15.35;100.00;98725.03;5052757;28;20457;-79
2021/08/25 08:34:28;;;;;;;9.40;4.60;;;14.80;99.90;;;15.41;100.00;98718.19;5048753;28;20590;-79
2021/08/25 08:36:57;;;;;;;7.43;4.50;;;14.90;99.90;;;15.46;100.00;98721.81;5065513;28;20544;-79
2021/08/25 08:39:25;;;;;;;7.90;4.47;;;14.90;99.90;;;15.54;100.00;98718.22;5056134;28;20563;-79
2021/08/25 08:41:54;;;;;;;5.27;4.27;;;14.90;99.90;;;15.58;100.00;98720.22;5051418;28;20500;-79
2021/08/25 08:44:26;;;;;;;9.23;4.50;;;15.00;99.90;;;15.62;100.00;98711.94;5049838;28;20620;-79
2021/08/25 08:46:55;;;;;;;6.00;4.10;;;15.00;99.90;;;15.64;100.00;98710.72;5050702;28;20465;-79
2021/08/25 08:49:27;;;;;;;8.40;4.87;;;15.00;99.90;;;15.70;100.00;98717.00;5045908;28;20497;-80
2021/08/25 08:51:57;;;;;;;16.67;4.27;;;15.00;99.90;;;15.74;100.00;98718.22;5051690;28;20886;-79
2021/08/25 08:54:25;;;;;;;6.57;4.10;;;15.10;99.90;;;15.78;100.00;98719.44;5059904;28;20796;-80
2021/08/25 08:56:54;;;;;;;7.53;4.20;;;15.10;99.90;;;15.82;100.00;98710.91;5047881;28;20521;-79
2021/08/25 08:59:24;;;;;;;8.30;3.97;;;15.10;99.90;;;15.86;100.00;98713.97;5048019;28;20473;-80
2021/08/25 09:01:53;;;;;;;7.43;3.93;;;15.20;99.90;;;15.90;100.00;98717.78;5050041;28;20446;-79
2021/08/25 09:04:35;;;;;;;8.87;4.10;;;15.20;99.90;;;15.93;100.00;98706.84;5051401;28;20485;-79
2021/08/25 09:07:04;;;;;;;16.23;4.30;;;15.30;99.90;;;15.98;100.00;98709.69;5053814;28;20453;-80
2021/08/25 09:09:55;;;;;;;475.83;273.53;;;15.30;99.90;;;16.04;100.00;98703.56;5051457;28;20524;-80
2021/08/25 09:12:24;;;;;;;10.63;6.43;;;15.40;99.90;;;16.08;100.00;98710.06;5045927;28;20520;-79
2021/08/25 09:14:53;;;;;;;9.40;4.50;;;15.40;99.90;;;16.13;100.00;98704.19;5051521;28;20445;-80
2021/08/25 09:17:29;;;;;;;10.00;4.20;;;15.50;99.90;;;16.20;100.00;98707.63;5045596;28;20523;-80
2021/08/25 09:20:10;;;;;;;4.93;3.77;;;15.50;99.90;;;16.24;100.00;98701.72;5045489;28;20989;-85
2021/08/25 09:22:39;;;;;;;17.23;9.80;;;15.60;99.90;;;16.31;100.00;98704.34;5034681;28;20446;-80
2021/08/25 09:25:08;;;;;;;8.80;4.13;;;15.70;99.90;;;16.38;100.00;98719.13;5046983;28;20976;-81
2021/08/25 09:27:37;;;;;;;7.60;4.00;;;15.80;99.90;;;16.42;100.00;98701.84;5047994;28;20454;-80
2021/08/25 09:30:07;;;;;;;7.83;3.93;;;15.80;99.90;;;16.48;100.00;98714.25;5047305;28;20468;-80
2021/08/25 09:32:37;;;;;;;8.03;3.67;;;15.90;99.90;;;16.52;100.00;98701.44;5048960;28;20487;-80
2021/08/25 09:35:08;;;;;;;7.97;4.33;;;15.90;99.90;;;16.69;100.00;98702.63;5042155;28;20458;-80
2021/08/25 09:37:37;;;;;;;9.53;4.33;;;16.10;99.90;;;16.74;100.00;98704.63;5052452;28;20509;-80
2021/08/25 09:40:16;;;;;;;6.17;3.80;;;16.10;99.90;;;16.79;100.00;98702.16;5041732;28;20446;-80
2021/08/25 09:42:48;;;;;;;8.27;3.83;;;16.10;99.90;;;16.83;100.00;98690.97;5048228;28;20548;-80
2021/08/25 09:45:19;;;;;;;10.80;3.77;;;16.30;99.90;;;16.88;100.00;98695.63;5045512;28;20588;-80
2021/08/25 09:47:50;;;;;;;7.13;3.90;;;16.30;99.90;;;16.93;100.00;98690.53;5044412;28;20508;-80
2021/08/25 09:50:23;;;;;;;6.20;3.70;;;16.40;99.90;;;16.98;100.00;98677.47;5045585;28;20530;-80
2021/08/25 09:52:52;;;;;;;6.60;3.80;;;16.50;99.90;;;17.01;100.00;98684.97;5049182;28;20461;-80
2021/08/25 09:55:32;;;;;;;7.00;4.03;;;16.40;99.90;;;17.08;100.00;98675.16;5049002;28;20465;-80
2021/08/25 09:58:02;;;;;;;9.27;4.30;;;16.50;99.90;;;17.15;100.00;98669.88;5043334;28;20522;-80
2021/08/25 10:00:31;;;;;;;9.03;3.67;;;16.60;99.90;;;17.22;100.00;98665.31;5048061;28;20515;-80
2021/08/25 10:03:02;;;;;;;5.57;3.73;;;16.70;99.90;;;17.27;100.00;98652.28;5041623;28;20507;-80
2021/08/25 10:05:32;;;;;;;5.90;3.73;;;16.70;99.90;;;17.35;100.00;98665.25;5046096;28;20497;-80
2021/08/25 10:08:04;;;;;;;6.17;3.70;;;16.70;99.90;;;17.38;100.00;98652.41;5045143;28;20462;-80
2021/08/25 10:10:33;;;;;;;4.00;2.80;;;16.80;99.90;;;17.39;100.00;98659.28;5046586;28;20850;-80
2021/08/25 10:13:02;;;;;;;6.43;3.40;;;16.80;99.90;;;17.45;97.12;98653.16;5047098;28;20464;-80
2021/08/25 10:15:48;;;;;;;6.73;3.70;;;16.90;99.90;;;17.53;96.20;98654.69;5044861;28;20827;-80
2021/08/25 10:18:37;;;;;;;4.87;3.67;;;17.00;99.90;;;17.56;94.27;98652.47;5045262;28;20465;-81
2021/08/25 10:21:42;;;;;;;8.27;4.00;;;17.00;99.90;;;17.64;92.64;98653.22;5050319;28;20457;-80
2021/08/25 10:24:11;;;;;;;6.03;3.40;;;17.00;99.90;;;17.71;93.34;98635.44;5052494;28;20535;-80